Time;durP1;ratioP1;P1;durP2;ratioP2;P2;SDS_P1;SDS_P2;PMS_P1;PMS_P2;Temp;Humidity;BMP_temperature;BMP_pressure;BME280_temperature;BME280_humidity;BME280_pressure;Samples;Min_cycle;Max_cycle;Signal;HPM_P1;HPM_P2
2022/08/21 00:01:54;;;;;;;7.35;4.25;;;;;;;15.87;81.04;101659.69;5096641;28;20054;-55
2022/08/21 00:04:20;;;;;;;7.22;4.20;;;;;;;15.77;80.97;101655.53;5104701;28;20037;-57
2022/08/21 00:06:45;;;;;;;7.38;4.30;;;;;;;15.74;80.96;101654.91;5092271;28;20027;-57
2022/08/21 00:09:11;;;;;;;8.07;4.07;;;;;;;15.69;81.39;101654.59;5098845;28;20495;-57
2022/08/21 00:11:38;;;;;;;5.35;3.92;;;;;;;15.70;81.04;101650.91;5084146;28;20024;-56
2022/08/21 00:14:06;;;;;;;6.28;4.07;;;;;;;15.70;81.23;101656.25;5096963;28;20027;-56
2022/08/21 00:16:32;;;;;;;7.10;4.10;;;;;;;15.66;81.27;101654.97;5101120;28;20828;-56
2022/08/21 00:18:57;;;;;;;7.35;4.32;;;;;;;15.64;81.39;101650.78;5102108;28;20078;-57
2022/08/21 00:21:24;;;;;;;7.03;4.20;;;;;;;15.63;81.39;101644.59;5103070;28;20047;-56
2022/08/21 00:23:50;;;;;;;6.70;3.92;;;;;;;15.63;81.53;101644.59;5099311;28;20374;-58
2022/08/21 00:26:15;;;;;;;5.10;4.03;;;;;;;15.63;81.56;101644.59;5096782;28;20035;-58
2022/08/21 00:28:40;;;;;;;10.00;4.30;;;;;;;15.66;81.18;101644.25;5102145;28;20438;-55
2022/08/21 00:31:06;;;;;;;9.30;4.65;;;;;;;15.62;81.30;101642.94;5090326;28;20027;-60
2022/08/21 00:33:32;;;;;;;7.88;4.60;;;;;;;15.63;80.76;101639.25;5104499;28;20101;-58
2022/08/21 00:35:57;;;;;;;10.13;4.68;;;;;;;15.63;80.91;101641.91;5106495;28;20477;-56
2022/08/21 00:38:22;;;;;;;10.00;4.78;;;;;;;15.64;80.75;101632.88;5107432;28;20046;-56
2022/08/21 00:40:52;;;;;;;8.02;4.55;;;;;;;15.58;80.97;101622.91;5099108;28;20031;-57
2022/08/21 00:43:21;;;;;;;7.03;4.90;;;;;;;15.57;80.47;101626.59;5097871;28;20032;-56
2022/08/21 00:45:47;;;;;;;9.30;4.60;;;;;;;15.66;80.99;101633.56;5105044;28;20024;-58
2022/08/21 00:48:12;;;;;;;8.35;5.00;;;;;;;15.61;80.43;101630.59;5105035;28;20734;-59
2022/08/21 00:50:42;;;;;;;8.07;4.90;;;;;;;15.52;80.85;101626.28;5094008;28;20038;-58
2022/08/21 00:53:10;;;;;;;6.93;5.15;;;;;;;15.55;81.03;101626.75;5103207;28;20035;-56
2022/08/21 00:55:36;;;;;;;6.65;4.78;;;;;;;15.48;81.21;101630.31;5105587;28;20939;-56
2022/08/21 00:58:05;;;;;;;8.68;5.00;;;;;;;15.35;82.12;101630.88;5097863;28;20077;-55
2022/08/21 01:00:38;;;;;;;7.93;4.60;;;;;;;15.43;82.62;101629.00;5104560;28;20023;-58
2022/08/21 01:03:09;;;;;;;7.40;4.90;;;;;;;15.36;82.59;101637.88;5107092;28;20037;-58
2022/08/21 01:05:35;;;;;;;8.10;4.43;;;;;;;15.33;83.01;101629.22;5094432;28;20024;-57
2022/08/21 01:08:00;;;;;;;7.60;4.25;;;;;;;15.35;82.52;101631.72;5101835;28;20590;-55
2022/08/21 01:10:26;;;;;;;5.65;4.57;;;;;;;15.33;82.54;101629.22;5106114;28;20031;-57
2022/08/21 01:12:54;;;;;;;8.27;4.40;;;;;;;15.33;82.60;101623.03;5102624;28;20597;-56
2022/08/21 01:15:22;;;;;;;8.82;5.05;;;;;;;15.33;81.59;101628.38;5093934;28;20051;-56
2022/08/21 01:17:49;;;;;;;8.38;5.60;;;;;;;15.33;81.42;101628.38;5103612;28;20040;-56
2022/08/21 01:20:15;;;;;;;10.07;5.60;;;;;;;15.34;81.61;101630.03;5103321;28;20028;-58
2022/08/21 01:22:40;;;;;;;12.43;6.40;;;;;;;15.29;81.53;101632.41;5104554;28;20032;-56
2022/08/21 01:25:08;;;;;;;9.63;5.97;;;;;;;15.32;81.44;101624.88;5105796;28;20089;-55
2022/08/21 01:27:33;;;;;;;11.45;6.32;;;;;;;15.26;81.45;101628.25;5105330;28;20059;-55
2022/08/21 01:30:14;;;;;;;8.15;6.00;;;;;;;15.24;81.63;101618.75;5103838;28;20054;-56
2022/08/21 01:32:39;;;;;;;8.40;6.25;;;;;;;15.23;81.82;101622.41;5097724;28;20034;-57
2022/08/21 01:35:06;;;;;;;9.95;6.68;;;;;;;15.16;82.15;101622.28;5097758;28;20027;-56
2022/08/21 01:37:32;;;;;;;12.35;5.60;;;;;;;15.12;82.76;101635.13;5103600;28;20131;-56
2022/08/21 01:39:57;;;;;;;8.57;6.18;;;;;;;15.05;83.52;101626.97;5100710;28;20435;-57
2022/08/21 01:42:22;;;;;;;11.32;6.07;;;;;;;15.15;82.64;101624.09;5105373;28;20043;-59
2022/08/21 01:44:48;;;;;;;9.82;6.07;;;;;;;15.07;82.56;101624.13;5106683;28;20027;-57
2022/08/21 01:47:14;;;;;;;10.18;6.40;;;;;;;15.04;82.57;101632.47;5106082;28;20046;-56
2022/08/21 01:49:41;;;;;;;10.77;6.28;;;;;;;14.90;83.93;101629.53;5101072;28;20112;-57
2022/08/21 01:52:07;;;;;;;9.25;6.50;;;;;;;15.03;83.38;101623.66;5101274;28;20032;-59
2022/08/21 01:54:33;;;;;;;9.90;6.38;;;;;;;14.96;83.80;101624.50;5101082;28;20143;-60
2022/08/21 01:56:59;;;;;;;6.80;5.55;;;;;;;14.96;83.33;101620.00;5093401;28;20034;-60
2022/08/21 01:59:25;;;;;;;8.73;5.78;;;;;;;14.90;83.13;101621.50;5103229;28;20028;-56
2022/08/21 02:01:51;;;;;;;9.48;6.35;;;;;;;14.78;83.37;101614.88;5101429;28;20031;-56
2022/08/21 02:04:17;;;;;;;9.07;6.72;;;;;;;14.74;83.53;101613.50;5102957;28;20031;-57
2022/08/21 02:06:43;;;;;;;10.57;6.80;;;;;;;14.75;83.43;101612.56;5103171;28;20055;-59
2022/08/21 02:09:15;;;;;;;11.43;6.75;;;;;;;14.66;83.43;101612.53;5093998;28;20032;-57
2022/08/21 02:11:41;;;;;;;10.45;6.57;;;;;;;14.68;83.52;101606.16;5103513;28;20495;-58
2022/08/21 02:14:11;;;;;;;9.40;6.70;;;;;;;14.68;83.96;101600.84;5105282;28;20039;-60
2022/08/21 02:16:38;;;;;;;9.95;6.82;;;;;;;14.46;84.33;101605.88;5097080;28;20039;-58
2022/08/21 02:19:03;;;;;;;9.07;6.45;;;;;;;14.47;84.31;101591.53;5104468;28;20054;-57
2022/08/21 02:21:29;;;;;;;9.75;6.70;;;;;;;14.46;83.47;101590.69;5105126;28;20428;-58
2022/08/21 02:23:54;;;;;;;10.73;6.38;;;;;;;14.37;83.54;101595.19;5101584;28;20030;-57
2022/08/21 02:26:20;;;;;;;10.18;6.68;;;;;;;14.49;84.09;101597.53;5101053;28;20031;-58
2022/08/21 02:28:45;;;;;;;11.15;7.05;;;;;;;14.47;84.12;101596.88;5101150;28;20024;-59
2022/08/21 02:31:10;;;;;;;9.88;6.80;;;;;;;14.58;83.88;101607.19;5094868;28;20023;-57
2022/08/21 02:33:36;;;;;;;8.20;5.75;;;;;;;14.47;83.33;101607.56;5099986;28;20036;-58
2022/08/21 02:36:02;;;;;;;6.68;5.22;;;;;;;14.39;82.94;101601.22;5105140;28;20031;-58
2022/08/21 02:38:33;;;;;;;8.35;6.10;;;;;;;14.31;83.78;101598.53;5104580;28;20388;-58
2022/08/21 02:40:58;;;;;;;10.55;6.47;;;;;;;14.28;84.26;101593.56;5104072;28;20066;-56
2022/08/21 02:43:26;;;;;;;9.48;6.88;;;;;;;14.22;84.21;101594.22;5101842;28;20059;-59
2022/08/21 02:45:52;;;;;;;8.90;6.70;;;;;;;14.25;84.24;101591.22;5105381;28;20491;-59
2022/08/21 02:48:23;;;;;;;11.05;7.60;;;;;;;14.22;83.98;101583.56;5097867;28;20036;-59
2022/08/21 02:50:56;;;;;;;10.32;7.65;;;;;;;14.31;84.24;101593.22;5091377;28;20506;-57
2022/08/21 02:53:22;;;;;;;12.35;8.90;;;;;;;14.17;84.26;101602.75;5100698;28;20118;-58
2022/08/21 02:55:49;;;;;;;12.38;8.93;;;;;;;14.21;84.42;101593.38;5102713;28;20677;-60
2022/08/21 02:58:17;;;;;;;13.00;8.73;;;;;;;14.21;84.80;101597.91;5101542;28;20042;-57
2022/08/21 03:00:43;;;;;;;13.88;9.68;;;;;;;14.27;84.18;101594.56;5097936;28;20032;-59
2022/08/21 03:03:09;;;;;;;13.00;9.32;;;;;;;14.28;84.18;101598.91;5093446;28;20817;-56
2022/08/21 03:05:37;;;;;;;13.15;9.30;;;;;;;14.29;84.19;101600.56;5103163;28;20080;-57
2022/08/21 03:08:04;;;;;;;13.15;9.35;;;;;;;14.31;84.08;101590.53;5102816;28;20043;-58
2022/08/21 03:10:30;;;;;;;13.27;9.70;;;;;;;14.28;83.76;101590.91;5105615;28;20096;-58
2022/08/21 03:12:56;;;;;;;14.45;10.40;;;;;;;14.22;84.04;101589.72;5099724;28;20125;-57
2022/08/21 03:15:23;;;;;;;15.68;10.82;;;;;;;14.17;83.80;101588.56;5105595;28;20035;-57
2022/08/21 03:17:50;;;;;;;14.88;10.73;;;;;;;14.18;83.94;101582.22;5102459;28;20400;-60
2022/08/21 03:20:18;;;;;;;13.82;10.60;;;;;;;14.13;83.68;101586.22;5102471;28;20031;-58
2022/08/21 03:22:43;;;;;;;14.73;10.40;;;;;;;14.06;83.61;101579.88;5102809;28;20221;-59
2022/08/21 03:25:10;;;;;;;15.38;10.45;;;;;;;14.13;83.91;101580.88;5101647;28;20545;-57
2022/08/21 03:27:36;;;;;;;15.05;10.30;;;;;;;14.09;84.09;101590.22;5103241;28;20195;-57
2022/08/21 03:30:04;;;;;;;15.88;10.18;;;;;;;14.11;83.63;101588.22;5100560;28;20035;-59
2022/08/21 03:32:31;;;;;;;14.57;10.43;;;;;;;14.12;83.27;101589.06;5100492;28;20039;-58
2022/08/21 03:34:56;;;;;;;17.63;10.32;;;;;;;14.05;83.73;101590.72;5102239;28;20027;-56
2022/08/21 03:37:22;;;;;;;14.82;10.27;;;;;;;14.00;84.01;101577.88;5099633;28;20036;-58
2022/08/21 03:39:47;;;;;;;19.15;11.25;;;;;;;13.91;83.87;101577.03;5100031;28;20050;-59
2022/08/21 03:42:12;;;;;;;16.33;10.32;;;;;;;13.93;84.49;101574.22;5099046;28;20495;-57
2022/08/21 03:44:39;;;;;;;16.17;10.00;;;;;;;13.89;84.09;101578.19;5101027;28;20028;-57
2022/08/21 03:47:05;;;;;;;14.50;10.05;;;;;;;13.88;83.90;101576.53;5096967;28;20075;-57
2022/08/21 03:49:30;;;;;;;15.10;10.07;;;;;;;13.88;83.99;101581.88;5094749;28;20157;-56
2022/08/21 03:51:56;;;;;;;16.65;9.38;;;;;;;13.92;84.13;101569.88;5099860;28;20035;-55
2022/08/21 03:54:21;;;;;;;13.30;9.75;;;;;;;14.02;84.04;101567.91;5099920;28;20135;-59
2022/08/21 03:56:47;;;;;;;15.23;9.55;;;;;;;13.91;83.96;101573.56;5090770;28;20038;-60
2022/08/21 03:59:12;;;;;;;17.92;10.27;;;;;;;13.83;84.18;101569.03;5103847;28;20046;-56
2022/08/21 04:01:38;;;;;;;15.02;9.55;;;;;;;13.93;84.50;101574.22;5097050;28;20031;-60
2022/08/21 04:04:04;;;;;;;15.80;9.82;;;;;;;13.84;84.21;101576.03;5096865;28;20105;-57
2022/08/21 04:06:30;;;;;;;14.32;10.23;;;;;;;13.85;84.49;101573.22;5101697;28;20079;-56
2022/08/21 04:08:55;;;;;;;14.52;9.77;;;;;;;13.84;84.44;101576.88;5100482;28;20399;-57
2022/08/21 04:11:21;;;;;;;16.17;9.75;;;;;;;13.90;84.57;101579.88;5101046;28;20054;-58
2022/08/21 04:13:46;;;;;;;13.73;9.50;;;;;;;13.85;84.31;101578.56;5102629;28;20035;-59
2022/08/21 04:16:13;;;;;;;14.65;9.77;;;;;;;13.85;84.62;101583.88;5101172;28;20031;-56
2022/08/21 04:18:38;;;;;;;16.63;9.90;;;;;;;13.81;84.53;101589.72;5080026;28;20027;-56
2022/08/21 04:21:06;;;;;;;16.27;9.98;;;;;;;13.80;84.74;101586.19;5102230;28;20038;-57
2022/08/21 04:23:32;;;;;;;15.68;9.43;;;;;;;13.82;84.76;101589.53;5095228;28;20031;-57
2022/08/21 04:25:57;;;;;;;14.32;9.32;;;;;;;13.80;85.22;101580.88;5104041;28;20032;-57
2022/08/21 04:28:25;;;;;;;15.43;9.60;;;;;;;13.68;85.45;101582.19;5094874;28;20122;-57
2022/08/21 04:30:51;;;;;;;16.15;9.70;;;;;;;13.74;85.24;101592.19;5101541;28;20036;-57
2022/08/21 04:33:18;;;;;;;16.25;9.80;;;;;;;13.69;85.55;101594.50;5100858;28;20038;-58
2022/08/21 04:35:43;;;;;;;19.52;9.48;;;;;;;13.64;85.36;101587.00;5097385;28;20183;-56
2022/08/21 04:38:08;;;;;;;15.70;9.13;;;;;;;13.65;84.73;101591.34;5096124;28;20031;-58
2022/08/21 04:40:34;;;;;;;14.88;9.73;;;;;;;13.66;84.98;101598.34;5099198;28;20098;-57
2022/08/21 04:43:05;;;;;;;15.35;9.23;;;;;;;13.59;85.65;101594.66;5096284;28;20040;-59
2022/08/21 04:45:43;;;;;;;15.07;9.45;;;;;;;13.61;85.72;101597.16;5099675;28;20035;-60
2022/08/21 04:48:11;;;;;;;16.52;9.65;;;;;;;13.42;86.38;101604.41;5103541;28;20043;-60
2022/08/21 04:50:57;;;;;;;16.60;10.18;;;;;;;13.52;86.34;101599.78;5103541;28;20082;-58
2022/08/21 04:53:30;;;;;;;13.63;9.20;;;;;;;13.56;86.49;101600.28;5101705;28;20042;-58
2022/08/21 04:55:59;;;;;;;18.90;10.05;;;;;;;13.56;85.96;101598.47;5102803;28;20035;-58
2022/08/21 04:58:26;;;;;;;13.07;9.23;;;;;;;13.54;86.18;101603.16;5094088;28;20063;-59
2022/08/21 05:00:55;;;;;;;14.57;9.52;;;;;;;13.54;85.90;101603.16;5097731;28;20024;-58
2022/08/21 05:03:21;;;;;;;14.48;8.82;;;;;;;13.56;85.55;101600.28;5087909;28;20056;-61
2022/08/21 05:05:47;;;;;;;14.02;8.80;;;;;;;13.58;85.87;101604.47;5088794;28;20056;-60
2022/08/21 05:08:15;;;;;;;16.88;9.02;;;;;;;13.54;85.64;101608.47;5094746;28;20027;-60
2022/08/21 05:10:44;;;;;;;17.40;8.90;;;;;;;13.52;85.83;101609.63;5097119;28;20160;-59
2022/08/21 05:13:10;;;;;;;19.10;8.88;;;;;;;13.52;85.99;101615.78;5097020;28;20472;-59
2022/08/21 05:15:37;;;;;;;13.25;8.23;;;;;;;13.57;86.29;101613.47;5099856;28;20031;-59
2022/08/21 05:18:03;;;;;;;13.13;8.68;;;;;;;13.55;86.12;101617.28;5092661;27;20039;-57
2022/08/21 05:20:28;;;;;;;14.68;9.25;;;;;;;13.57;86.08;101616.13;5100880;28;20384;-58
2022/08/21 05:22:54;;;;;;;17.13;8.95;;;;;;;13.57;86.15;101618.78;5098691;27;20028;-58
2022/08/21 05:25:19;;;;;;;15.75;8.52;;;;;;;13.67;85.99;101617.84;5097344;28;21554;-61
2022/08/21 05:27:44;;;;;;;14.82;8.50;;;;;;;13.67;85.70;101618.66;5096201;28;20089;-59
2022/08/21 05:30:10;;;;;;;14.93;8.20;;;;;;;13.70;85.64;101623.66;5104776;27;20469;-59
2022/08/21 05:32:36;;;;;;;14.05;7.85;;;;;;;13.64;85.76;101623.47;5096722;28;20994;-57
2022/08/21 05:35:04;;;;;;;13.70;7.97;;;;;;;13.67;86.05;101625.84;5102803;28;20054;-58
2022/08/21 05:37:29;;;;;;;11.75;7.88;;;;;;;13.71;85.87;101619.16;5103928;28;20361;-61
2022/08/21 05:39:54;;;;;;;16.08;7.45;;;;;;;13.74;85.78;101624.19;5102207;27;20058;-59
2022/08/21 05:42:20;;;;;;;15.70;7.90;;;;;;;13.79;85.47;101624.53;5090740;28;20073;-59
2022/08/21 05:44:45;;;;;;;13.25;8.05;;;;;;;13.76;85.59;101619.50;5103152;28;20123;-58
2022/08/21 05:47:11;;;;;;;14.05;7.90;;;;;;;13.88;85.80;101624.53;5091447;28;20046;-59
2022/08/21 05:49:36;;;;;;;14.32;7.45;;;;;;;13.92;85.92;101631.22;5106684;27;20084;-57
2022/08/21 05:52:03;;;;;;;14.10;7.80;;;;;;;13.93;85.67;101627.53;5100016;28;20039;-60
2022/08/21 05:54:30;;;;;;;14.00;7.32;;;;;;;14.01;85.07;101624.88;5101772;28;20104;-58
2022/08/21 05:56:55;;;;;;;15.40;7.78;;;;;;;14.04;84.92;101629.91;5102285;28;20100;-58
2022/08/21 05:59:21;;;;;;;14.07;7.20;;;;;;;14.03;84.96;101622.91;5109839;27;20023;-59
2022/08/21 06:01:46;;;;;;;14.05;7.57;;;;;;;14.07;85.07;101628.72;5101467;28;20452;-59
2022/08/21 06:04:13;;;;;;;15.50;7.63;;;;;;;14.08;85.56;101625.91;5098175;28;20051;-57
2022/08/21 06:06:38;;;;;;;14.50;7.20;;;;;;;14.12;85.12;101624.56;5098742;28;20054;-59
2022/08/21 06:09:04;;;;;;;17.58;7.47;;;;;;;14.13;84.69;101622.72;5103522;27;20059;-58
2022/08/21 06:11:30;;;;;;;13.02;7.57;;;;;;;14.13;85.52;101631.56;5097522;28;20072;-57
2022/08/21 06:13:56;;;;;;;12.10;7.18;;;;;;;14.18;85.64;101625.75;5101990;28;20185;-59
2022/08/21 06:16:22;;;;;;;20.08;7.88;;;;;;;14.27;86.39;101634.59;5104294;28;20487;-58
2022/08/21 06:18:48;;;;;;;14.30;7.45;;;;;;;14.32;85.88;101640.25;5105853;27;20039;-59
2022/08/21 06:21:13;;;;;;;14.45;7.40;;;;;;;14.35;85.38;101631.91;5105699;28;20520;-58
2022/08/21 06:23:39;;;;;;;16.65;7.15;;;;;;;14.41;85.51;101634.91;5101362;28;20063;-58
2022/08/21 06:26:07;;;;;;;15.13;7.07;;;;;;;14.39;85.43;101632.41;5098219;28;20031;-57
2022/08/21 06:28:33;;;;;;;16.90;7.43;;;;;;;14.41;85.80;101635.72;5092753;27;20020;-59
2022/08/21 06:30:59;;;;;;;14.60;7.32;;;;;;;14.45;85.77;101630.91;5099577;28;20461;-59
2022/08/21 06:33:24;;;;;;;15.40;7.43;;;;;;;14.48;86.15;101631.41;5103557;28;20092;-58
2022/08/21 06:35:50;;;;;;;16.98;7.57;;;;;;;14.51;86.15;101631.06;5102549;28;20077;-57
2022/08/21 06:38:16;;;;;;;16.88;7.38;;;;;;;14.58;86.08;101641.06;5102279;27;20050;-58
2022/08/21 06:40:41;;;;;;;17.92;7.35;;;;;;;14.61;86.09;101636.22;5097622;28;20113;-59
2022/08/21 06:43:09;;;;;;;14.30;7.10;;;;;;;14.72;86.02;101636.88;5095150;28;22626;-62
2022/08/21 06:45:36;;;;;;;16.35;7.00;;;;;;;14.77;85.92;101642.56;5096684;28;20023;-60
2022/08/21 06:48:01;;;;;;;16.70;7.22;;;;;;;14.79;85.93;101635.22;5096142;27;20040;-56
2022/08/21 06:50:28;;;;;;;16.27;7.10;;;;;;;14.89;86.87;101632.34;5095087;28;20492;-58
2022/08/21 06:53:01;;;;;;;17.13;7.25;;;;;;;14.95;85.82;101637.00;5098907;28;20042;-57
2022/08/21 06:55:27;;;;;;;16.65;7.13;;;;;;;15.01;86.34;101638.19;5099101;28;20569;-59
2022/08/21 06:57:52;;;;;;;15.50;7.05;;;;;;;15.08;86.95;101647.16;5100994;27;20028;-58
2022/08/21 07:00:18;;;;;;;17.02;7.30;;;;;;;15.15;86.63;101645.47;5103118;27;20433;-58
2022/08/21 07:02:43;;;;;;;16.55;7.20;;;;;;;15.20;86.84;101643.13;5098708;28;20036;-56
2022/08/21 07:05:08;;;;;;;15.55;6.97;;;;;;;15.26;86.49;101635.41;5099239;28;20077;-58
2022/08/21 07:07:33;;;;;;;16.38;6.82;;;;;;;15.35;87.00;101631.72;5105156;28;20031;-60
2022/08/21 07:09:59;;;;;;;19.80;7.53;;;;;;;15.44;86.34;101625.31;5101921;27;20042;-57
2022/08/21 07:12:25;;;;;;;16.52;7.53;;;;;;;15.50;86.93;101629.16;5102109;28;20456;-59
2022/08/21 07:14:51;;;;;;;13.45;6.78;;;;;;;15.62;86.93;101626.91;5092995;28;20441;-60
2022/08/21 07:17:16;;;;;;;18.40;7.38;;;;;;;15.73;86.86;101639.88;5099974;28;20088;-57
2022/08/21 07:19:42;;;;;;;17.83;7.20;;;;;;;15.86;87.05;101627.75;5111000;27;20035;-60
2022/08/21 07:22:07;;;;;;;18.05;6.80;;;;;;;15.96;86.69;101633.75;5098099;28;20032;-58
2022/08/21 07:24:32;;;;;;;16.60;7.10;;;;;;;16.07;86.54;101624.47;5100167;28;20121;-59
2022/08/21 07:26:58;;;;;;;19.52;6.97;;;;;;;16.14;86.10;101627.25;5091201;28;20177;-60
2022/08/21 07:29:23;;;;;;;17.05;6.68;;;;;;;16.21;86.55;101625.53;5092651;28;20048;-60
2022/08/21 07:31:48;;;;;;;19.77;7.07;;;;;;;16.26;86.49;101623.16;5101322;28;20031;-58
2022/08/21 07:34:14;;;;;;;19.13;6.88;;;;;;;16.32;85.67;101631.47;5104674;28;20043;-57
2022/08/21 07:36:40;;;;;;;16.58;6.80;;;;;;;16.32;86.10;101636.81;5098303;28;20028;-57
2022/08/21 07:39:05;;;;;;;16.63;6.28;;;;;;;16.34;86.58;101629.44;5099658;28;20027;-58
2022/08/21 07:41:31;;;;;;;19.30;6.93;;;;;;;16.41;86.15;101630.38;5099731;28;20074;-57
2022/08/21 07:43:57;;;;;;;15.68;6.00;;;;;;;16.54;86.21;101625.22;5098518;28;20089;-58
2022/08/21 07:46:24;;;;;;;15.43;6.28;;;;;;;16.62;85.79;101628.88;5104372;28;20059;-57
2022/08/21 07:48:49;;;;;;;15.68;5.97;;;;;;;16.71;84.88;101630.44;5099747;28;20953;-57
2022/08/21 07:51:16;;;;;;;17.15;5.80;;;;;;;16.80;85.00;101626.66;5103070;28;20067;-58
2022/08/21 07:53:42;;;;;;;17.85;5.60;;;;;;;16.88;84.22;101619.53;5094704;28;20488;-59
2022/08/21 07:56:08;;;;;;;17.42;5.60;;;;;;;16.93;84.94;101627.88;5095019;28;20020;-59
2022/08/21 07:58:34;;;;;;;14.95;4.97;;;;;;;16.98;84.83;101622.78;5108218;27;20455;-57
2022/08/21 08:01:00;;;;;;;17.63;5.35;;;;;;;17.03;83.57;101632.97;5101657;28;20031;-58
2022/08/21 08:03:25;;;;;;;16.38;5.25;;;;;;;17.07;83.44;101621.69;5096351;28;20511;-58
2022/08/21 08:05:50;;;;;;;16.08;5.32;;;;;;;17.17;83.24;101623.28;5098544;28;20376;-57
2022/08/21 08:08:16;;;;;;;15.02;4.80;;;;;;;17.25;82.74;101619.63;5095967;28;20116;-60
2022/08/21 08:10:42;;;;;;;16.70;5.20;;;;;;;17.33;81.86;101623.03;5101588;28;20564;-59
2022/08/21 08:13:08;;;;;;;13.55;4.95;;;;;;;17.34;81.92;101624.72;5098445;28;20027;-60
2022/08/21 08:15:33;;;;;;;15.45;4.68;;;;;;;17.45;82.17;101620.72;5102177;28;20035;-59
2022/08/21 08:17:59;;;;;;;15.15;4.70;;;;;;;17.54;81.94;101624.13;5102714;28;20035;-60
2022/08/21 08:20:29;;;;;;;16.02;5.05;;;;;;;17.65;81.45;101624.66;5100243;28;20097;-59
2022/08/21 08:22:54;;;;;;;13.30;4.40;;;;;;;17.71;80.55;101624.72;5099119;28;20031;-59
2022/08/21 08:25:22;;;;;;;17.33;4.63;;;;;;;17.82;81.70;101623.38;5094487;28;20028;-60
2022/08/21 08:27:48;;;;;;;16.30;4.85;;;;;;;17.81;79.91;101624.41;5092875;28;20043;-60
2022/08/21 08:30:16;;;;;;;14.25;4.50;;;;;;;17.87;80.00;101615.59;5096888;28;20531;-60
2022/08/21 08:32:42;;;;;;;15.80;4.32;;;;;;;17.94;79.95;101617.50;5093461;28;20015;-58
2022/08/21 08:35:09;;;;;;;12.80;4.28;;;;;;;17.97;79.21;101612.56;5100358;28;20040;-60
2022/08/21 08:37:37;;;;;;;15.82;4.65;;;;;;;18.07;78.49;101623.03;5096373;28;20165;-59
2022/08/21 08:40:04;;;;;;;13.93;4.50;;;;;;;18.13;79.10;101610.69;5094595;28;20028;-57
2022/08/21 08:42:33;;;;;;;16.40;4.70;;;;;;;18.13;78.02;101611.53;5097366;28;20107;-57
2022/08/21 08:45:04;;;;;;;13.38;4.25;;;;;;;18.23;78.53;101610.38;5094609;28;20385;-58
2022/08/21 08:47:32;;;;;;;12.40;3.92;;;;;;;18.30;78.88;101605.88;5079851;28;20125;-59
2022/08/21 08:50:09;;;;;;;14.70;4.63;;;;;;;18.27;77.36;101601.72;5099380;28;20496;-60
2022/08/21 08:52:45;;;;;;;15.23;4.60;;;;;;;18.27;77.81;101601.72;5088685;28;20539;-59
2022/08/21 08:55:26;;;;;;;13.35;4.60;;;;;;;18.37;78.80;101601.41;5102102;28;20060;-59
2022/08/21 08:57:52;;;;;;;13.38;4.35;;;;;;;18.51;77.76;101596.94;5103318;28;20096;-59
2022/08/21 09:00:21;;;;;;;13.32;3.72;;;;;;;18.55;76.56;101594.69;5108763;27;20577;-58
2022/08/21 09:02:47;;;;;;;14.02;4.00;;;;;;;18.67;75.42;101594.97;5097518;28;20461;-59
2022/08/21 09:05:42;;;;;;;10.95;3.38;;;;;;;18.75;75.42;101591.31;5104830;28;20072;-58
2022/08/21 09:08:42;;;;;;;13.05;3.60;;;;;;;18.68;75.06;101586.72;5070927;27;20086;-59
2022/08/21 09:11:22;;;;;;;16.65;3.88;;;;;;;18.66;74.03;101578.03;5101678;27;20111;-57
2022/08/21 09:14:06;;;;;;;12.18;3.60;;;;;;;18.62;73.32;101587.53;5106650;28;20114;-58
2022/08/21 09:16:46;;;;;;;12.00;3.53;;;;;;;18.53;73.69;101580.63;5105349;28;20076;-60
2022/08/21 09:19:41;;;;;;;11.98;3.22;;;;;;;18.58;73.75;101586.25;5103603;27;20038;-58
2022/08/21 09:22:19;;;;;;;11.07;3.30;;;;;;;18.66;73.56;101583.41;5101569;28;20038;-57
2022/08/21 09:25:02;;;;;;;10.10;3.33;;;;;;;18.74;72.37;101584.28;5102186;27;20122;-59
2022/08/21 09:27:29;;;;;;;13.88;3.67;;;;;;;18.93;72.25;101590.78;5097481;28;20430;-58
2022/08/21 09:29:57;;;;;;;10.95;3.08;;;;;;;19.04;70.89;101589.44;5102178;27;20031;-58
2022/08/21 09:32:26;;;;;;;10.82;3.15;;;;;;;19.20;69.80;101588.25;5094873;28;20057;-59
2022/08/21 09:35:14;;;;;;;8.32;2.72;;;;;;;19.38;69.36;101585.00;5093023;28;20035;-58
2022/08/21 09:37:51;;;;;;;10.52;3.08;;;;;;;19.53;67.69;101589.41;5093792;28;20028;-55
2022/08/21 09:40:23;;;;;;;10.63;3.17;;;;;;;19.60;68.28;101582.16;5103170;28;20058;-57
2022/08/21 09:42:57;;;;;;;11.43;3.42;;;;;;;19.75;69.09;101584.66;5100100;28;20042;-57
2022/08/21 09:45:22;;;;;;;9.95;3.50;;;;;;;19.75;65.94;101590.88;5099414;28;20431;-58
2022/08/21 09:47:47;;;;;;;9.02;3.65;;;;;;;19.72;64.70;101595.81;5099254;28;20043;-57
2022/08/21 09:50:15;;;;;;;12.43;3.92;;;;;;;19.62;66.48;101590.84;5091409;28;20640;-59
2022/08/21 09:52:54;;;;;;;14.10;4.10;;;;;;;19.54;67.88;101588.34;5098797;28;20101;-59
2022/08/21 09:58:14;;;;;;;10.85;3.55;;;;;;;19.54;66.72;101580.28;5095862;28;20527;-58
2022/08/21 10:00:39;;;;;;;11.35;3.50;;;;;;;19.71;66.44;101578.88;5089161;28;20352;-59
2022/08/21 10:03:18;;;;;;;8.75;3.38;;;;;;;19.91;67.69;101578.06;5093486;28;20042;-57
2022/08/21 10:05:59;;;;;;;11.13;3.83;;;;;;;19.85;66.28;101578.88;5095359;28;20036;-57
2022/08/21 10:08:28;;;;;;;9.70;3.65;;;;;;;19.93;67.98;101575.16;5099047;27;20031;-57
2022/08/21 10:11:00;;;;;;;8.25;3.50;;;;;;;19.93;66.31;101584.06;5095706;28;20054;-60
2022/08/21 10:13:55;;;;;;;12.50;3.50;;;;;;;20.01;65.40;101577.69;5091364;28;20123;-60
2022/08/21 10:16:53;;;;;;;7.60;3.08;;;;;;;20.22;65.50;101584.72;5100161;28;20023;-58
2022/08/21 10:19:33;;;;;;;8.93;3.03;;;;;;;20.25;63.72;101581.63;5069039;28;20534;-58
2022/08/21 10:22:26;;;;;;;8.00;3.22;;;;;;;20.25;64.11;101589.69;5105889;28;20035;-57
2022/08/21 10:25:03;;;;;;;9.95;3.38;;;;;;;20.33;62.07;101585.13;5097359;28;20080;-57
2022/08/21 10:27:47;;;;;;;10.63;4.00;;;;;;;20.38;61.60;101577.25;5102889;28;20040;-57
2022/08/21 10:30:17;;;;;;;8.95;3.65;;;;;;;20.52;60.75;101578.06;5106360;27;20465;-57
2022/08/21 10:33:00;;;;;;;11.43;3.90;;;;;;;20.65;62.31;101577.19;5102684;28;20093;-59
2022/08/21 10:35:31;;;;;;;6.75;3.25;;;;;;;20.65;60.29;101577.19;5102229;28;20035;-60
2022/08/21 10:38:36;;;;;;;7.75;3.10;;;;;;;20.62;60.38;101578.44;5094182;27;21100;-57
2022/08/21 10:41:20;;;;;;;8.00;3.10;;;;;;;20.63;59.83;101571.19;5099970;28;20031;-56
2022/08/21 10:44:11;;;;;;;10.07;3.50;;;;;;;20.73;59.70;101568.91;5104080;28;20043;-57
2022/08/21 10:46:50;;;;;;;8.48;3.40;;;;;;;20.71;60.24;101570.94;5031276;28;20067;-59
2022/08/21 10:49:35;;;;;;;10.20;3.78;;;;;;;20.75;59.99;101574.88;5103402;27;20027;-59
2022/08/21 10:52:19;;;;;;;11.48;4.07;;;;;;;20.79;60.92;101575.28;5099075;28;20376;-58
2022/08/21 10:54:56;;;;;;;10.43;4.13;;;;;;;20.77;60.52;101562.03;5099310;28;20042;-57
2022/08/21 10:57:38;;;;;;;10.07;3.95;;;;;;;20.74;60.65;101573.25;5103825;28;20035;-59
2022/08/21 11:00:10;;;;;;;7.72;3.67;;;;;;;20.74;61.56;101565.16;5092202;28;20680;-56
2022/08/21 11:02:42;;;;;;;;;;;;;;;20.77;62.05;101563.91;5098888;28;20688;-57
2022/08/21 11:05:17;;;;;;;10.98;4.15;;;;;;;20.69;61.24;101567.66;5104559;28;19919;-60
2022/08/21 11:07:54;;;;;;;9.95;3.60;;;;;;;20.63;60.05;101568.50;5099643;28;20035;-59
2022/08/21 11:10:27;;;;;;;7.63;3.15;;;;;;;20.65;60.48;101571.81;5100419;28;20091;-57
2022/08/21 11:13:00;;;;;;;9.57;3.92;;;;;;;20.73;60.05;101568.91;5101476;28;20039;-57
2022/08/21 11:15:54;;;;;;;10.98;4.03;;;;;;;20.98;60.50;101564.69;5103941;28;20504;-58
2022/08/21 11:18:37;;;;;;;8.77;4.07;;;;;;;21.01;59.82;101569.66;5091819;27;20054;-57
2022/08/21 11:21:11;;;;;;;11.40;4.13;;;;;;;21.07;57.59;101563.41;5099299;28;20027;-58
2022/08/21 11:23:43;;;;;;;8.30;3.40;;;;;;;21.27;57.34;101568.72;5070922;28;20381;-57
2022/08/21 11:26:23;;;;;;;9.55;3.20;;;;;;;21.46;57.02;101560.72;5088312;28;20621;-59
2022/08/21 11:28:58;;;;;;;6.35;3.13;;;;;;;21.55;57.26;101567.50;5093234;28;22749;-58
2022/08/21 11:31:39;;;;;;;8.20;3.35;;;;;;;21.56;55.91;101555.66;5093723;28;20039;-57